sensor_id;sensor_type;location;lat;lon;timestamp;pressure;altitude;pressure_sealevel;temperature;humidity
33075;BME280;19433;51.292;6.868;2023-09-19T00:00:59;99680.34;;;14.12;100.00
33075;BME280;19433;51.292;6.868;2023-09-19T00:03:24;99697.97;;;14.06;100.00
33075;BME280;19433;51.292;6.868;2023-09-19T00:05:50;99686.03;;;14.05;100.00
33075;BME280;19433;51.292;6.868;2023-09-19T00:08:16;99689.81;;;13.99;100.00
33075;BME280;19433;51.292;6.868;2023-09-19T00:10:41;99694.16;;;13.95;100.00
33075;BME280;19433;51.292;6.868;2023-09-19T00:13:07;99694.38;;;13.94;100.00
33075;BME280;19433;51.292;6.868;2023-09-19T00:15:39;99702.38;;;13.90;100.00
33075;BME280;19433;51.292;6.868;2023-09-19T00:18:06;99701.28;;;13.91;100.00
33075;BME280;19433;51.292;6.868;2023-09-19T00:20:31;99694.78;;;13.86;100.00
33075;BME280;19433;51.292;6.868;2023-09-19T00:22:57;99697.53;;;13.97;100.00
33075;BME280;19433;51.292;6.868;2023-09-19T00:25:24;99698.78;;;13.90;100.00
33075;BME280;19433;51.292;6.868;2023-09-19T00:27:50;99696.00;;;13.90;100.00
33075;BME280;19433;51.292;6.868;2023-09-19T00:30:17;99692.25;;;13.84;100.00
33075;BME280;19433;51.292;6.868;2023-09-19T00:32:47;99707.47;;;13.82;100.00
33075;BME280;19433;51.292;6.868;2023-09-19T00:35:13;99707.34;;;13.88;100.00
33075;BME280;19433;51.292;6.868;2023-09-19T00:37:42;99718.09;;;13.85;100.00
33075;BME280;19433;51.292;6.868;2023-09-19T00:40:09;99712.53;;;13.85;100.00
33075;BME280;19433;51.292;6.868;2023-09-19T00:42:40;99712.13;;;13.93;100.00
33075;BME280;19433;51.292;6.868;2023-09-19T00:45:07;99712.25;;;13.98;100.00
33075;BME280;19433;51.292;6.868;2023-09-19T00:47:35;99708.44;;;13.87;100.00
33075;BME280;19433;51.292;6.868;2023-09-19T00:50:00;99706.13;;;13.84;100.00
33075;BME280;19433;51.292;6.868;2023-09-19T00:52:27;99709.41;;;13.81;100.00
33075;BME280;19433;51.292;6.868;2023-09-19T00:54:53;99705.91;;;13.86;100.00
33075;BME280;19433;51.292;6.868;2023-09-19T00:57:19;99724.13;;;13.82;100.00
33075;BME280;19433;51.292;6.868;2023-09-19T00:59:48;99720.03;;;13.84;100.00
33075;BME280;19433;51.292;6.868;2023-09-19T01:02:15;99722.44;;;13.81;100.00
33075;BME280;19433;51.292;6.868;2023-09-19T01:04:41;99728.22;;;13.79;100.00
33075;BME280;19433;51.292;6.868;2023-09-19T01:07:07;99735.22;;;13.82;100.00
33075;BME280;19433;51.292;6.868;2023-09-19T01:09:34;99727.50;;;13.84;100.00
33075;BME280;19433;51.292;6.868;2023-09-19T01:12:02;99723.75;;;13.78;100.00
33075;BME280;19433;51.292;6.868;2023-09-19T01:14:59;99734.25;;;13.88;100.00
33075;BME280;19433;51.292;6.868;2023-09-19T01:17:32;99740.03;;;13.98;100.00
33075;BME280;19433;51.292;6.868;2023-09-19T01:20:15;99744.00;;;14.02;100.00
33075;BME280;19433;51.292;6.868;2023-09-19T01:23:12;99741.97;;;13.97;100.00
33075;BME280;19433;51.292;6.868;2023-09-19T01:25:50;99744.00;;;14.02;100.00
33075;BME280;19433;51.292;6.868;2023-09-19T01:31:13;99754.19;;;13.85;100.00
33075;BME280;19433;51.292;6.868;2023-09-19T01:33:58;99750.56;;;13.84;100.00
33075;BME280;19433;51.292;6.868;2023-09-19T01:36:28;99759.00;;;13.89;100.00
33075;BME280;19433;51.292;6.868;2023-09-19T01:38:55;99765.91;;;13.87;100.00
33075;BME280;19433;51.292;6.868;2023-09-19T01:41:33;99761.91;;;13.83;100.00
33075;BME280;19433;51.292;6.868;2023-09-19T01:44:06;99761.06;;;13.70;100.00
33075;BME280;19433;51.292;6.868;2023-09-19T01:46:35;99773.00;;;13.83;100.00
33075;BME280;19433;51.292;6.868;2023-09-19T01:49:18;99780.38;;;13.89;100.00
33075;BME280;19433;51.292;6.868;2023-09-19T01:52:00;99772.53;;;13.86;100.00
33075;BME280;19433;51.292;6.868;2023-09-19T01:54:32;99780.97;;;13.91;100.00
33075;BME280;19433;51.292;6.868;2023-09-19T01:57:20;99774.06;;;13.93;100.00
33075;BME280;19433;51.292;6.868;2023-09-19T01:59:53;99774.81;;;14.00;100.00
33075;BME280;19433;51.292;6.868;2023-09-19T02:02:22;99764.41;;;13.96;100.00
33075;BME280;19433;51.292;6.868;2023-09-19T02:04:48;99772.16;;;13.94;100.00
33075;BME280;19433;51.292;6.868;2023-09-19T02:07:16;99778.53;;;13.94;100.00
33075;BME280;19433;51.292;6.868;2023-09-19T02:09:41;99782.06;;;13.90;100.00
33075;BME280;19433;51.292;6.868;2023-09-19T02:12:09;99774.69;;;13.95;100.00
33075;BME280;19433;51.292;6.868;2023-09-19T02:14:34;99782.78;;;13.97;100.00
33075;BME280;19433;51.292;6.868;2023-09-19T02:17:02;99789.41;;;13.96;100.00
33075;BME280;19433;51.292;6.868;2023-09-19T02:19:28;99783.84;;;13.96;100.00
33075;BME280;19433;51.292;6.868;2023-09-19T02:21:55;99790.63;;;14.00;100.00
33075;BME280;19433;51.292;6.868;2023-09-19T02:24:20;99798.13;;;13.88;100.00
33075;BME280;19433;51.292;6.868;2023-09-19T02:26:45;99799.44;;;13.85;100.00
33075;BME280;19433;51.292;6.868;2023-09-19T02:29:11;99798.13;;;13.88;100.00
33075;BME280;19433;51.292;6.868;2023-09-19T02:31:38;99801.03;;;13.81;100.00
33075;BME280;19433;51.292;6.868;2023-09-19T02:34:03;99813.22;;;13.80;100.00
33075;BME280;19433;51.292;6.868;2023-09-19T02:36:30;99815.75;;;13.82;100.00
33075;BME280;19433;51.292;6.868;2023-09-19T02:38:56;99809.97;;;13.71;100.00
33075;BME280;19433;51.292;6.868;2023-09-19T02:41:21;99821.91;;;13.72;100.00
33075;BME280;19433;51.292;6.868;2023-09-19T02:43:46;99824.06;;;13.82;100.00
33075;BME280;19433;51.292;6.868;2023-09-19T02:46:12;99813.59;;;13.72;100.00
33075;BME280;19433;51.292;6.868;2023-09-19T02:48:38;99824.94;;;13.70;100.00
33075;BME280;19433;51.292;6.868;2023-09-19T02:51:03;99802.22;;;13.62;100.00
33075;BME280;19433;51.292;6.868;2023-09-19T02:53:29;99813.09;;;13.63;100.00
33075;BME280;19433;51.292;6.868;2023-09-19T02:55:56;99820.56;;;13.63;100.00
33075;BME280;19433;51.292;6.868;2023-09-19T02:58:21;99817.69;;;13.58;100.00
33075;BME280;19433;51.292;6.868;2023-09-19T03:00:47;99816.84;;;13.57;100.00
33075;BME280;19433;51.292;6.868;2023-09-19T03:03:15;99830.47;;;13.70;100.00
33075;BME280;19433;51.292;6.868;2023-09-19T03:05:41;99834.34;;;13.69;100.00
33075;BME280;19433;51.292;6.868;2023-09-19T03:08:12;99823.81;;;13.48;100.00
33075;BME280;19433;51.292;6.868;2023-09-19T03:10:40;99828.28;;;13.49;100.00
33075;BME280;19433;51.292;6.868;2023-09-19T03:13:06;99825.97;;;13.46;100.00
33075;BME280;19433;51.292;6.868;2023-09-19T03:15:34;99842.28;;;13.54;100.00
33075;BME280;19433;51.292;6.868;2023-09-19T03:18:02;99848.31;;;13.63;100.00
33075;BME280;19433;51.292;6.868;2023-09-19T03:20:28;99846.28;;;13.58;100.00
33075;BME280;19433;51.292;6.868;2023-09-19T03:22:53;99828.03;;;13.51;100.00
33075;BME280;19433;51.292;6.868;2023-09-19T03:25:18;99836.25;;;13.57;100.00
33075;BME280;19433;51.292;6.868;2023-09-19T03:27:44;99829.97;;;13.50;100.00
33075;BME280;19433;51.292;6.868;2023-09-19T03:30:10;99842.06;;;13.56;100.00
33075;BME280;19433;51.292;6.868;2023-09-19T03:32:44;99826.59;;;13.48;100.00
33075;BME280;19433;51.292;6.868;2023-09-19T03:35:10;99833.22;;;13.47;100.00
33075;BME280;19433;51.292;6.868;2023-09-19T03:37:40;99825.97;;;13.46;100.00
33075;BME280;19433;51.292;6.868;2023-09-19T03:40:06;99834.81;;;13.55;100.00
33075;BME280;19433;51.292;6.868;2023-09-19T03:42:32;99823.78;;;13.36;100.00
33075;BME280;19433;51.292;6.868;2023-09-19T03:44:57;99820.19;;;13.36;100.00
33075;BME280;19433;51.292;6.868;2023-09-19T03:47:24;99836.84;;;13.48;100.00
33075;BME280;19433;51.292;6.868;2023-09-19T03:49:50;99837.22;;;13.51;100.00
33075;BME280;19433;51.292;6.868;2023-09-19T03:52:15;99819.34;;;13.47;100.00
33075;BME280;19433;51.292;6.868;2023-09-19T03:54:41;99834.19;;;13.53;100.00
33075;BME280;19433;51.292;6.868;2023-09-19T03:57:06;99840.59;;;13.53;100.00
33075;BME280;19433;51.292;6.868;2023-09-19T03:59:32;99833.13;;;13.54;100.00
33075;BME280;19433;51.292;6.868;2023-09-19T04:01:57;99828.66;;;13.64;100.00
33075;BME280;19433;51.292;6.868;2023-09-19T04:04:23;99828.41;;;13.54;100.00
33075;BME280;19433;51.292;6.868;2023-09-19T04:06:51;99836.00;;;13.47;100.00
33075;BME280;19433;51.292;6.868;2023-09-19T04:09:16;99825.50;;;13.49;100.00
33075;BME280;19433;51.292;6.868;2023-09-19T04:11:41;99829.13;;;13.61;100.00
33075;BME280;19433;51.292;6.868;2023-09-19T04:14:06;99839.03;;;13.57;100.00
33075;BME280;19433;51.292;6.868;2023-09-19T04:16:32;99825.13;;;13.46;100.00
33075;BME280;19433;51.292;6.868;2023-09-19T04:18:57;99827.06;;;13.45;100.00
33075;BME280;19433;51.292;6.868;2023-09-19T04:21:22;99836.25;;;13.57;100.00
33075;BME280;19433;51.292;6.868;2023-09-19T04:23:47;99824.56;;;13.55;100.00
33075;BME280;19433;51.292;6.868;2023-09-19T04:26:13;99815.72;;;13.47;100.00
33075;BME280;19433;51.292;6.868;2023-09-19T04:28:38;99834.94;;;13.71;100.00
33075;BME280;19433;51.292;6.868;2023-09-19T04:31:04;99817.91;;;13.56;100.00
33075;BME280;19433;51.292;6.868;2023-09-19T04:33:30;99829.13;;;13.50;100.00
33075;BME280;19433;51.292;6.868;2023-09-19T04:35:55;99839.38;;;13.61;100.00
33075;BME280;19433;51.292;6.868;2023-09-19T04:38:21;99835.75;;;13.60;100.00
33075;BME280;19433;51.292;6.868;2023-09-19T04:40:47;99828.88;;;13.63;100.00
33075;BME280;19433;51.292;6.868;2023-09-19T04:43:12;99843.25;;;13.60;100.00
33075;BME280;19433;51.292;6.868;2023-09-19T04:45:38;99840.72;;;13.58;100.00
33075;BME280;19433;51.292;6.868;2023-09-19T04:48:04;99839.88;;;13.58;100.00
33075;BME280;19433;51.292;6.868;2023-09-19T04:50:31;99834.06;;;13.48;100.00
33075;BME280;19433;51.292;6.868;2023-09-19T04:52:57;99837.81;;;13.53;100.00
33075;BME280;19433;51.292;6.868;2023-09-19T04:55:22;99844.69;;;13.62;100.00
33075;BME280;19433;51.292;6.868;2023-09-19T04:57:50;99845.31;;;13.64;100.00
33075;BME280;19433;51.292;6.868;2023-09-19T05:00:17;99840.34;;;13.55;100.00
33075;BME280;19433;51.292;6.868;2023-09-19T05:02:49;99855.78;;;13.51;100.00
33075;BME280;19433;51.292;6.868;2023-09-19T05:05:14;99851.78;;;13.47;100.00
33075;BME280;19433;51.292;6.868;2023-09-19T05:07:42;99864.25;;;13.56;100.00
33075;BME280;19433;51.292;6.868;2023-09-19T05:10:08;99864.81;;;13.46;100.00
33075;BME280;19433;51.292;6.868;2023-09-19T05:12:36;99861.19;;;13.46;100.00
33075;BME280;19433;51.292;6.868;2023-09-19T05:15:03;99884.38;;;13.51;100.00
33075;BME280;19433;51.292;6.868;2023-09-19T05:17:28;99873.28;;;13.51;100.00
33075;BME280;19433;51.292;6.868;2023-09-19T05:19:54;99875.06;;;13.46;100.00
33075;BME280;19433;51.292;6.868;2023-09-19T05:22:19;99894.25;;;13.47;100.00
33075;BME280;19433;51.292;6.868;2023-09-19T05:24:44;99876.97;;;13.33;100.00
33075;BME280;19433;51.292;6.868;2023-09-19T05:27:16;99906.84;;;13.61;100.00
33075;BME280;19433;51.292;6.868;2023-09-19T05:29:43;99902.25;;;13.55;100.00
33075;BME280;19433;51.292;6.868;2023-09-19T05:32:09;99916.66;;;13.76;100.00
33075;BME280;19433;51.292;6.868;2023-09-19T05:34:36;99925.34;;;13.91;100.00
33075;BME280;19433;51.292;6.868;2023-09-19T05:37:01;99915.09;;;13.91;99.77
33075;BME280;19433;51.292;6.868;2023-09-19T05:39:26;99930.56;;;13.99;99.00
33075;BME280;19433;51.292;6.868;2023-09-19T05:41:52;99919.59;;;14.04;99.11
33075;BME280;19433;51.292;6.868;2023-09-19T05:44:17;99926.97;;;14.10;97.99
33075;BME280;19433;51.292;6.868;2023-09-19T05:46:42;99929.25;;;14.13;98.36
33075;BME280;19433;51.292;6.868;2023-09-19T05:49:07;99938.91;;;14.22;98.08
33075;BME280;19433;51.292;6.868;2023-09-19T05:51:33;99945.81;;;14.20;98.03
33075;BME280;19433;51.292;6.868;2023-09-19T05:53:59;99939.28;;;14.14;97.14
33075;BME280;19433;51.292;6.868;2023-09-19T05:56:24;99940.25;;;14.20;97.07
33075;BME280;19433;51.292;6.868;2023-09-19T05:58:49;99947.25;;;14.22;96.95
33075;BME280;19433;51.292;6.868;2023-09-19T06:01:17;99959.00;;;14.36;97.32
33075;BME280;19433;51.292;6.868;2023-09-19T06:03:43;99966.03;;;14.50;96.38
33075;BME280;19433;51.292;6.868;2023-09-19T06:06:08;99962.38;;;14.61;95.48
33075;BME280;19433;51.292;6.868;2023-09-19T06:08:34;99974.25;;;14.45;95.71
33075;BME280;19433;51.292;6.868;2023-09-19T06:10:59;99970.84;;;14.55;95.67
33075;BME280;19433;51.292;6.868;2023-09-19T06:13:27;99961.56;;;14.49;95.67
33075;BME280;19433;51.292;6.868;2023-09-19T06:15:52;99960.31;;;14.57;95.54
33075;BME280;19433;51.292;6.868;2023-09-19T06:18:17;99965.16;;;14.61;95.05
33075;BME280;19433;51.292;6.868;2023-09-19T06:20:46;99960.91;;;14.70;95.25
33075;BME280;19433;51.292;6.868;2023-09-19T06:23:12;99954.91;;;14.62;94.54
33075;BME280;19433;51.292;6.868;2023-09-19T06:25:38;99950.75;;;14.76;94.26
33075;BME280;19433;51.292;6.868;2023-09-19T06:28:04;99955.25;;;14.65;94.63
33075;BME280;19433;51.292;6.868;2023-09-19T06:30:30;99956.09;;;14.66;94.66
33075;BME280;19433;51.292;6.868;2023-09-19T06:32:56;99951.59;;;14.76;94.69
33075;BME280;19433;51.292;6.868;2023-09-19T06:35:22;99957.63;;;14.97;93.87
33075;BME280;19433;51.292;6.868;2023-09-19T06:37:47;99955.66;;;14.97;93.90
33075;BME280;19433;51.292;6.868;2023-09-19T06:40:14;99946.81;;;15.00;93.75
33075;BME280;19433;51.292;6.868;2023-09-19T06:42:52;99951.91;;;15.03;93.70
33075;BME280;19433;51.292;6.868;2023-09-19T06:45:21;99950.59;;;14.83;93.95
33075;BME280;19433;51.292;6.868;2023-09-19T06:47:50;99951.53;;;15.00;93.97
33075;BME280;19433;51.292;6.868;2023-09-19T06:50:17;99966.16;;;15.07;94.27
33075;BME280;19433;51.292;6.868;2023-09-19T06:52:44;99965.75;;;15.27;93.46
33075;BME280;19433;51.292;6.868;2023-09-19T06:55:10;99964.63;;;15.28;92.71
33075;BME280;19433;51.292;6.868;2023-09-19T06:57:38;99965.22;;;15.41;91.73
33075;BME280;19433;51.292;6.868;2023-09-19T07:00:06;99961.75;;;15.51;91.76
33075;BME280;19433;51.292;6.868;2023-09-19T07:02:44;99963.09;;;15.48;90.94
33075;BME280;19433;51.292;6.868;2023-09-19T07:05:09;99975.16;;;15.66;90.86
33075;BME280;19433;51.292;6.868;2023-09-19T07:07:35;99971.91;;;15.86;89.84
33075;BME280;19433;51.292;6.868;2023-09-19T07:10:03;99961.66;;;15.74;90.09
33075;BME280;19433;51.292;6.868;2023-09-19T07:12:35;99964.81;;;15.95;89.67
33075;BME280;19433;51.292;6.868;2023-09-19T07:15:00;99973.06;;;15.90;89.02
33075;BME280;19433;51.292;6.868;2023-09-19T07:17:25;99972.94;;;15.96;89.46
33075;BME280;19433;51.292;6.868;2023-09-19T07:19:51;99970.31;;;16.23;87.40
33075;BME280;19433;51.292;6.868;2023-09-19T07:22:16;99969.13;;;16.36;86.79
33075;BME280;19433;51.292;6.868;2023-09-19T07:24:41;99984.94;;;16.47;87.00
33075;BME280;19433;51.292;6.868;2023-09-19T07:27:07;99985.16;;;16.62;85.76
33075;BME280;19433;51.292;6.868;2023-09-19T07:29:32;99990.47;;;16.80;85.30
33075;BME280;19433;51.292;6.868;2023-09-19T07:31:57;99990.16;;;16.77;84.69
33075;BME280;19433;51.292;6.868;2023-09-19T07:34:23;99993.97;;;16.71;85.02
33075;BME280;19433;51.292;6.868;2023-09-19T07:36:48;99993.81;;;17.21;84.03
33075;BME280;19433;51.292;6.868;2023-09-19T07:39:13;99988.75;;;17.18;82.59
33075;BME280;19433;51.292;6.868;2023-09-19T07:41:39;99996.03;;;17.41;81.94
33075;BME280;19433;51.292;6.868;2023-09-19T07:44:04;100001.59;;;17.63;80.75
33075;BME280;19433;51.292;6.868;2023-09-19T07:46:29;100003.50;;;18.11;79.45
33075;BME280;19433;51.292;6.868;2023-09-19T07:48:56;100007.47;;;17.88;79.36
33075;BME280;19433;51.292;6.868;2023-09-19T07:51:22;100005.72;;;18.09;78.99
33075;BME280;19433;51.292;6.868;2023-09-19T07:53:47;100009.47;;;17.92;79.07
33075;BME280;19433;51.292;6.868;2023-09-19T07:56:13;100011.91;;;18.11;79.30
33075;BME280;19433;51.292;6.868;2023-09-19T07:58:40;99996.59;;;17.86;79.45
33075;BME280;19433;51.292;6.868;2023-09-19T08:01:10;100006.53;;;17.77;80.27
33075;BME280;19433;51.292;6.868;2023-09-19T08:03:38;100002.16;;;17.86;79.61
33075;BME280;19433;51.292;6.868;2023-09-19T08:06:06;100006.59;;;17.17;82.04
33075;BME280;19433;51.292;6.868;2023-09-19T08:08:33;100015.94;;;18.25;78.52
33075;BME280;19433;51.292;6.868;2023-09-19T08:11:02;100017.06;;;18.93;74.71
33075;BME280;19433;51.292;6.868;2023-09-19T08:13:29;100015.78;;;19.16;73.38
33075;BME280;19433;51.292;6.868;2023-09-19T08:15:56;100022.81;;;19.91;71.32
33075;BME280;19433;51.292;6.868;2023-09-19T08:18:21;100027.91;;;20.09;69.40
33075;BME280;19433;51.292;6.868;2023-09-19T08:20:51;100021.19;;;20.15;68.31
33075;BME280;19433;51.292;6.868;2023-09-19T08:23:17;100019.50;;;20.24;67.93
33075;BME280;19433;51.292;6.868;2023-09-19T08:25:47;100027.09;;;20.24;68.39
33075;BME280;19433;51.292;6.868;2023-09-19T08:28:12;100027.09;;;20.14;69.26
33075;BME280;19433;51.292;6.868;2023-09-19T08:30:42;100034.44;;;20.60;66.33
33075;BME280;19433;51.292;6.868;2023-09-19T08:33:07;100034.41;;;20.70;66.45
33075;BME280;19433;51.292;6.868;2023-09-19T08:35:33;100029.28;;;21.33;64.00
33075;BME280;19433;51.292;6.868;2023-09-19T08:37:58;100035.16;;;22.01;61.07
33075;BME280;19433;51.292;6.868;2023-09-19T08:40:30;100044.50;;;22.36;58.21
33075;BME280;19433;51.292;6.868;2023-09-19T08:42:58;100051.97;;;22.12;59.76
33075;BME280;19433;51.292;6.868;2023-09-19T08:45:25;100044.72;;;21.95;59.94
33075;BME280;19433;51.292;6.868;2023-09-19T08:48:23;100047.69;;;22.24;58.54
33075;BME280;19433;51.292;6.868;2023-09-19T08:50:57;100053.25;;;21.80;59.56
33075;BME280;19433;51.292;6.868;2023-09-19T08:56:24;100041.72;;;20.92;61.09
33075;BME280;19433;51.292;6.868;2023-09-19T08:58:57;100053.72;;;22.02;58.92
33075;BME280;19433;51.292;6.868;2023-09-19T09:01:23;100038.94;;;22.26;56.87
33075;BME280;19433;51.292;6.868;2023-09-19T09:03:52;100036.75;;;22.91;55.76
33075;BME280;19433;51.292;6.868;2023-09-19T09:06:19;100054.22;;;23.40;52.86
33075;BME280;19433;51.292;6.868;2023-09-19T09:08:45;100060.34;;;23.53;52.78
33075;BME280;19433;51.292;6.868;2023-09-19T09:11:11;100048.31;;;22.50;54.10
33075;BME280;19433;51.292;6.868;2023-09-19T09:13:38;100046.16;;;22.42;54.25
33075;BME280;19433;51.292;6.868;2023-09-19T09:16:04;100040.13;;;23.40;52.15
33075;BME280;19433;51.292;6.868;2023-09-19T09:18:29;100045.22;;;23.67;49.96
33075;BME280;19433;51.292;6.868;2023-09-19T09:20:55;100038.88;;;24.37;48.78
33075;BME280;19433;51.292;6.868;2023-09-19T09:23:21;100045.75;;;25.14;46.53
33075;BME280;19433;51.292;6.868;2023-09-19T09:25:51;100050.06;;;24.93;46.45
33075;BME280;19433;51.292;6.868;2023-09-19T09:28:26;100043.69;;;25.47;46.28
33075;BME280;19433;51.292;6.868;2023-09-19T09:30:53;100053.88;;;26.98;42.26
33075;BME280;19433;51.292;6.868;2023-09-19T09:33:19;100051.47;;;25.97;43.14
33075;BME280;19433;51.292;6.868;2023-09-19T09:35:58;100040.88;;;25.34;44.71
33075;BME280;19433;51.292;6.868;2023-09-19T09:38:29;100051.19;;;24.03;48.79
33075;BME280;19433;51.292;6.868;2023-09-19T09:40:59;100036.66;;;23.48;49.34
33075;BME280;19433;51.292;6.868;2023-09-19T09:43:40;100042.19;;;24.01;48.38
33075;BME280;19433;51.292;6.868;2023-09-19T09:46:12;100039.47;;;24.85;46.87
33075;BME280;19433;51.292;6.868;2023-09-19T09:48:47;100046.63;;;23.17;50.51
33075;BME280;19433;51.292;6.868;2023-09-19T09:51:42;100035.13;;;22.06;53.81
33075;BME280;19433;51.292;6.868;2023-09-19T09:54:12;100023.69;;;22.32;54.14
33075;BME280;19433;51.292;6.868;2023-09-19T09:57:00;100023.94;;;21.91;54.45
33075;BME280;19433;51.292;6.868;2023-09-19T09:59:57;100031.34;;;22.26;54.33
33075;BME280;19433;51.292;6.868;2023-09-19T10:02:28;100038.94;;;23.46;50.03
33075;BME280;19433;51.292;6.868;2023-09-19T10:04:57;100042.50;;;24.75;47.26
33075;BME280;19433;51.292;6.868;2023-09-19T10:07:40;100029.94;;;23.21;48.21
33075;BME280;19433;51.292;6.868;2023-09-19T10:10:15;100036.91;;;22.31;52.47
33075;BME280;19433;51.292;6.868;2023-09-19T10:12:47;100023.69;;;21.23;55.60
33075;BME280;19433;51.292;6.868;2023-09-19T10:15:14;100036.63;;;21.04;56.04
33075;BME280;19433;51.292;6.868;2023-09-19T10:17:42;100032.09;;;21.93;54.16
33075;BME280;19433;51.292;6.868;2023-09-19T10:20:12;100026.72;;;22.74;52.12
33075;BME280;19433;51.292;6.868;2023-09-19T10:22:48;100034.13;;;24.51;46.05
33075;BME280;19433;51.292;6.868;2023-09-19T10:25:25;100022.19;;;26.01;42.39
33075;BME280;19433;51.292;6.868;2023-09-19T10:27:52;100021.50;;;26.32;41.28
33075;BME280;19433;51.292;6.868;2023-09-19T10:30:22;100014.03;;;25.17;42.97
33075;BME280;19433;51.292;6.868;2023-09-19T10:32:57;100011.41;;;24.75;43.88
33075;BME280;19433;51.292;6.868;2023-09-19T10:35:25;100006.81;;;25.93;41.43
33075;BME280;19433;51.292;6.868;2023-09-19T10:37:51;100016.41;;;27.09;39.51
33075;BME280;19433;51.292;6.868;2023-09-19T10:40:20;100014.59;;;28.01;38.12
33075;BME280;19433;51.292;6.868;2023-09-19T10:42:48;100018.72;;;27.38;38.63
33075;BME280;19433;51.292;6.868;2023-09-19T10:45:17;100029.53;;;28.41;37.57
33075;BME280;19433;51.292;6.868;2023-09-19T10:47:45;100026.91;;;26.06;40.76
33075;BME280;19433;51.292;6.868;2023-09-19T10:50:20;100009.66;;;24.93;43.41
33075;BME280;19433;51.292;6.868;2023-09-19T10:52:49;100022.19;;;26.01;41.44
33075;BME280;19433;51.292;6.868;2023-09-19T10:55:24;100032.56;;;27.31;39.34
33075;BME280;19433;51.292;6.868;2023-09-19T10:57:50;100035.16;;;28.15;37.58
33075;BME280;19433;51.292;6.868;2023-09-19T11:00:17;100015.06;;;26.62;38.92
33075;BME280;19433;51.292;6.868;2023-09-19T11:05:40;100011.09;;;27.56;37.74
33075;BME280;19433;51.292;6.868;2023-09-19T11:08:09;100011.31;;;25.95;40.51
33075;BME280;19433;51.292;6.868;2023-09-19T11:13:31;100024.44;;;25.77;40.09
33075;BME280;19433;51.292;6.868;2023-09-19T11:26:47;100020.47;;;26.14;39.35
33075;BME280;19433;51.292;6.868;2023-09-19T11:29:30;100019.19;;;25.70;40.46
33075;BME280;19433;51.292;6.868;2023-09-19T11:31:57;100011.81;;;23.74;43.88
33075;BME280;19433;51.292;6.868;2023-09-19T11:39:40;100012.78;;;25.23;40.58
33075;BME280;19433;51.292;6.868;2023-09-19T11:48:15;100003.19;;;23.18;44.47
33075;BME280;19433;51.292;6.868;2023-09-19T11:50:42;99999.75;;;21.90;48.30
33075;BME280;19433;51.292;6.868;2023-09-19T11:53:10;100002.81;;;22.38;47.24
33075;BME280;19433;51.292;6.868;2023-09-19T11:55:38;99997.63;;;24.54;42.44
33075;BME280;19433;51.292;6.868;2023-09-19T11:58:04;100014.16;;;26.17;39.39
33075;BME280;19433;51.292;6.868;2023-09-19T12:00:30;100018.56;;;26.37;37.77
33075;BME280;19433;51.292;6.868;2023-09-19T12:02:58;100012.75;;;26.64;37.82
33075;BME280;19433;51.292;6.868;2023-09-19T12:05:30;100017.00;;;26.98;36.72
33075;BME280;19433;51.292;6.868;2023-09-19T12:07:58;99993.63;;;27.23;37.12
33075;BME280;19433;51.292;6.868;2023-09-19T12:10:24;100002.81;;;27.68;36.78
33075;BME280;19433;51.292;6.868;2023-09-19T12:12:49;100010.13;;;28.43;35.22
33075;BME280;19433;51.292;6.868;2023-09-19T12:15:14;99997.00;;;29.58;34.06
33075;BME280;19433;51.292;6.868;2023-09-19T12:17:41;99994.16;;;29.58;33.09
33075;BME280;19433;51.292;6.868;2023-09-19T12:20:08;99991.22;;;29.96;32.03
33075;BME280;19433;51.292;6.868;2023-09-19T12:25:06;100003.44;;;28.30;33.63
33075;BME280;19433;51.292;6.868;2023-09-19T12:27:41;99995.41;;;27.50;34.83
33075;BME280;19433;51.292;6.868;2023-09-19T12:30:09;99987.38;;;26.59;36.25
33075;BME280;19433;51.292;6.868;2023-09-19T12:32:35;99981.06;;;26.62;36.00
33075;BME280;19433;51.292;6.868;2023-09-19T12:35:01;99985.38;;;27.52;35.07
33075;BME280;19433;51.292;6.868;2023-09-19T12:37:32;99979.31;;;27.76;35.15
33075;BME280;19433;51.292;6.868;2023-09-19T12:40:05;99981.00;;;28.03;34.12
33075;BME280;19433;51.292;6.868;2023-09-19T12:42:48;99968.00;;;27.93;34.61
33075;BME280;19433;51.292;6.868;2023-09-19T12:45:14;99958.66;;;28.19;33.72
33075;BME280;19433;51.292;6.868;2023-09-19T12:53:33;99951.31;;;27.04;35.69
33075;BME280;19433;51.292;6.868;2023-09-19T12:56:00;99958.41;;;27.15;35.66
33075;BME280;19433;51.292;6.868;2023-09-19T12:58:26;99954.84;;;26.79;36.46
33075;BME280;19433;51.292;6.868;2023-09-19T13:00:51;99943.94;;;27.91;34.73
33075;BME280;19433;51.292;6.868;2023-09-19T13:05:58;99952.41;;;27.17;35.32
33075;BME280;19433;51.292;6.868;2023-09-19T13:11:17;99959.38;;;26.35;37.36
33075;BME280;19433;51.292;6.868;2023-09-19T13:14:29;99970.84;;;27.06;36.31
33075;BME280;19433;51.292;6.868;2023-09-19T13:16:59;99961.03;;;26.58;36.89
33075;BME280;19433;51.292;6.868;2023-09-19T13:19:45;99958.16;;;26.50;36.00
33075;BME280;19433;51.292;6.868;2023-09-19T13:22:36;99957.81;;;25.02;40.00
33075;BME280;19433;51.292;6.868;2023-09-19T13:25:04;99958.22;;;25.23;39.18
33075;BME280;19433;51.292;6.868;2023-09-19T13:27:31;99951.44;;;26.23;38.05
33075;BME280;19433;51.292;6.868;2023-09-19T13:29:58;99966.03;;;26.17;38.37
33075;BME280;19433;51.292;6.868;2023-09-19T13:32:24;99935.59;;;25.23;39.14
33075;BME280;19433;51.292;6.868;2023-09-19T13:34:49;99955.09;;;25.66;38.93
33075;BME280;19433;51.292;6.868;2023-09-19T13:37:14;99942.53;;;25.17;40.71
33075;BME280;19433;51.292;6.868;2023-09-19T13:39:41;99942.97;;;24.13;41.55
33075;BME280;19433;51.292;6.868;2023-09-19T13:42:12;99933.19;;;22.49;44.44
33075;BME280;19433;51.292;6.868;2023-09-19T13:44:38;99932.97;;;22.11;47.51
33075;BME280;19433;51.292;6.868;2023-09-19T13:47:03;99932.13;;;22.10;47.19